Terminal Aerodrome Forecast
Issued by NWS Greer, SC

Home | Current Version | Previous Version | Text Only | Print | Product List | Glossary On
Versions: 1 2 3 4 5 6 7 8 9 10 11 12 13 14 15 16 17 18 19 20 21 22 23 24 25 26 27 28 29 30 31 32 33 34 35 36 37 38 39 40 41 42
000
FTUS42 KGSP 051832 AAA
TAFAVL
TAF AMD
KAVL 051832Z 0519/0618 35015G26KT 6SM -RA BR SCT015 OVC050
     FM052100 34015G25KT 3SM BR OVC015
     FM060300 34012G20KT P6SM BKN035
     FM060800 34008KT P6SM SCT100
     FM061400 01004KT P6SM SCT250=

USA.gov is the U.S. government's official web portal to all federal, state and local government web resources and services.